sensor_id;sensor_type;location;lat;lon;timestamp;temperature;humidity
41882;DHT22;27562;47.524;12.404;2023-05-10T00:01:12;14.10;99.90
41882;DHT22;27562;47.524;12.404;2023-05-10T00:03:38;14.10;99.90
41882;DHT22;27562;47.524;12.404;2023-05-10T00:06:03;14.10;99.90
41882;DHT22;27562;47.524;12.404;2023-05-10T00:08:29;14.10;99.90
41882;DHT22;27562;47.524;12.404;2023-05-10T00:10:55;14.10;99.90
41882;DHT22;27562;47.524;12.404;2023-05-10T00:13:20;14.20;99.90
41882;DHT22;27562;47.524;12.404;2023-05-10T00:15:46;14.20;99.90
41882;DHT22;27562;47.524;12.404;2023-05-10T00:18:12;14.30;99.90
41882;DHT22;27562;47.524;12.404;2023-05-10T00:20:37;14.30;99.90
41882;DHT22;27562;47.524;12.404;2023-05-10T00:23:03;14.30;99.90
41882;DHT22;27562;47.524;12.404;2023-05-10T00:25:29;14.30;99.90
41882;DHT22;27562;47.524;12.404;2023-05-10T00:27:54;14.30;99.90
41882;DHT22;27562;47.524;12.404;2023-05-10T00:30:20;14.30;99.90
41882;DHT22;27562;47.524;12.404;2023-05-10T00:32:46;14.40;99.90
41882;DHT22;27562;47.524;12.404;2023-05-10T00:35:13;14.30;99.90
41882;DHT22;27562;47.524;12.404;2023-05-10T00:37:39;14.30;99.90
41882;DHT22;27562;47.524;12.404;2023-05-10T00:40:05;14.30;99.90
41882;DHT22;27562;47.524;12.404;2023-05-10T00:42:31;14.30;99.90
41882;DHT22;27562;47.524;12.404;2023-05-10T00:44:57;14.30;99.90
41882;DHT22;27562;47.524;12.404;2023-05-10T00:47:23;14.30;99.90
41882;DHT22;27562;47.524;12.404;2023-05-10T00:49:49;14.30;99.90
41882;DHT22;27562;47.524;12.404;2023-05-10T00:52:15;14.30;99.90
41882;DHT22;27562;47.524;12.404;2023-05-10T00:54:41;14.20;99.90
41882;DHT22;27562;47.524;12.404;2023-05-10T00:57:07;14.20;99.90
41882;DHT22;27562;47.524;12.404;2023-05-10T00:59:33;14.20;99.90
41882;DHT22;27562;47.524;12.404;2023-05-10T01:01:59;14.20;99.90
41882;DHT22;27562;47.524;12.404;2023-05-10T01:04:24;14.20;99.90
41882;DHT22;27562;47.524;12.404;2023-05-10T01:06:54;14.20;99.90
41882;DHT22;27562;47.524;12.404;2023-05-10T01:09:21;14.10;99.90
41882;DHT22;27562;47.524;12.404;2023-05-10T01:11:47;13.90;99.90
41882;DHT22;27562;47.524;12.404;2023-05-10T01:14:14;13.80;99.90
41882;DHT22;27562;47.524;12.404;2023-05-10T01:16:44;13.70;99.90
41882;DHT22;27562;47.524;12.404;2023-05-10T01:19:20;13.60;99.90
41882;DHT22;27562;47.524;12.404;2023-05-10T01:27:17;13.50;99.90
41882;DHT22;27562;47.524;12.404;2023-05-10T01:35:58;13.60;99.90
41882;DHT22;27562;47.524;12.404;2023-05-10T01:38:07;13.60;99.90
41882;DHT22;27562;47.524;12.404;2023-05-10T01:40:42;13.50;99.90
41882;DHT22;27562;47.524;12.404;2023-05-10T01:43:17;13.40;99.90
41882;DHT22;27562;47.524;12.404;2023-05-10T01:46:07;13.40;99.90
41882;DHT22;27562;47.524;12.404;2023-05-10T01:48:47;13.50;99.90
41882;DHT22;27562;47.524;12.404;2023-05-10T01:51:19;13.40;99.90
41882;DHT22;27562;47.524;12.404;2023-05-10T01:53:47;13.40;99.90
41882;DHT22;27562;47.524;12.404;2023-05-10T01:56:14;13.40;99.90
41882;DHT22;27562;47.524;12.404;2023-05-10T01:58:43;13.40;99.90
41882;DHT22;27562;47.524;12.404;2023-05-10T02:01:11;13.40;99.90
41882;DHT22;27562;47.524;12.404;2023-05-10T02:03:38;13.40;99.90
41882;DHT22;27562;47.524;12.404;2023-05-10T02:06:05;13.40;99.90
41882;DHT22;27562;47.524;12.404;2023-05-10T02:08:35;13.50;99.90
41882;DHT22;27562;47.524;12.404;2023-05-10T02:11:03;13.50;99.90
41882;DHT22;27562;47.524;12.404;2023-05-10T02:13:31;13.50;99.90
41882;DHT22;27562;47.524;12.404;2023-05-10T02:15:59;13.50;99.90
41882;DHT22;27562;47.524;12.404;2023-05-10T02:18:26;13.60;99.90
41882;DHT22;27562;47.524;12.404;2023-05-10T02:20:56;13.60;99.90
41882;DHT22;27562;47.524;12.404;2023-05-10T02:23:23;13.60;99.90
41882;DHT22;27562;47.524;12.404;2023-05-10T02:25:51;13.50;99.90
41882;DHT22;27562;47.524;12.404;2023-05-10T02:28:18;13.40;99.90
41882;DHT22;27562;47.524;12.404;2023-05-10T02:30:45;13.30;99.90
41882;DHT22;27562;47.524;12.404;2023-05-10T02:33:12;13.30;99.90
41882;DHT22;27562;47.524;12.404;2023-05-10T02:35:39;13.20;99.90
41882;DHT22;27562;47.524;12.404;2023-05-10T02:38:06;13.20;99.90
41882;DHT22;27562;47.524;12.404;2023-05-10T02:40:33;13.20;99.90
41882;DHT22;27562;47.524;12.404;2023-05-10T02:43:01;13.20;99.90
41882;DHT22;27562;47.524;12.404;2023-05-10T02:45:31;13.30;99.90
41882;DHT22;27562;47.524;12.404;2023-05-10T02:47:57;13.30;99.90
41882;DHT22;27562;47.524;12.404;2023-05-10T02:50:26;13.20;99.90
41882;DHT22;27562;47.524;12.404;2023-05-10T02:52:56;13.20;99.90
41882;DHT22;27562;47.524;12.404;2023-05-10T02:55:27;13.10;99.90
41882;DHT22;27562;47.524;12.404;2023-05-10T02:57:59;13.10;99.90
41882;DHT22;27562;47.524;12.404;2023-05-10T03:00:25;13.10;99.90
41882;DHT22;27562;47.524;12.404;2023-05-10T03:02:52;13.10;99.90
41882;DHT22;27562;47.524;12.404;2023-05-10T03:05:18;13.20;99.90
41882;DHT22;27562;47.524;12.404;2023-05-10T03:07:44;13.20;99.90
41882;DHT22;27562;47.524;12.404;2023-05-10T03:10:11;13.20;99.90
41882;DHT22;27562;47.524;12.404;2023-05-10T03:13:05;13.20;99.90
41882;DHT22;27562;47.524;12.404;2023-05-10T03:15:42;13.00;99.90
41882;DHT22;27562;47.524;12.404;2023-05-10T03:18:18;13.00;99.90
41882;DHT22;27562;47.524;12.404;2023-05-10T03:20:51;12.90;99.90
41882;DHT22;27562;47.524;12.404;2023-05-10T03:23:35;12.90;99.90
41882;DHT22;27562;47.524;12.404;2023-05-10T03:26:06;12.90;99.90
41882;DHT22;27562;47.524;12.404;2023-05-10T03:28:34;13.00;99.90
41882;DHT22;27562;47.524;12.404;2023-05-10T03:31:01;13.00;99.90
41882;DHT22;27562;47.524;12.404;2023-05-10T03:33:27;13.10;99.90
41882;DHT22;27562;47.524;12.404;2023-05-10T03:35:54;13.10;99.90
41882;DHT22;27562;47.524;12.404;2023-05-10T03:38:19;13.10;99.90
41882;DHT22;27562;47.524;12.404;2023-05-10T03:40:45;13.10;99.90
41882;DHT22;27562;47.524;12.404;2023-05-10T03:43:11;13.20;99.90
41882;DHT22;27562;47.524;12.404;2023-05-10T03:45:36;13.10;99.90
41882;DHT22;27562;47.524;12.404;2023-05-10T03:48:02;13.10;99.90
41882;DHT22;27562;47.524;12.404;2023-05-10T03:50:28;13.10;99.90
41882;DHT22;27562;47.524;12.404;2023-05-10T03:52:54;13.10;99.90
41882;DHT22;27562;47.524;12.404;2023-05-10T03:55:19;13.10;99.90
41882;DHT22;27562;47.524;12.404;2023-05-10T03:57:45;13.10;99.90
41882;DHT22;27562;47.524;12.404;2023-05-10T04:00:11;13.10;99.90
41882;DHT22;27562;47.524;12.404;2023-05-10T04:02:37;13.00;99.90
41882;DHT22;27562;47.524;12.404;2023-05-10T04:05:02;13.00;99.90
41882;DHT22;27562;47.524;12.404;2023-05-10T04:07:28;13.00;99.90
41882;DHT22;27562;47.524;12.404;2023-05-10T04:09:54;13.00;99.90
41882;DHT22;27562;47.524;12.404;2023-05-10T04:12:20;13.00;99.90
41882;DHT22;27562;47.524;12.404;2023-05-10T04:14:45;13.00;99.90
41882;DHT22;27562;47.524;12.404;2023-05-10T04:17:11;12.90;99.90
41882;DHT22;27562;47.524;12.404;2023-05-10T04:19:37;12.90;99.90
41882;DHT22;27562;47.524;12.404;2023-05-10T04:22:03;12.90;99.90
41882;DHT22;27562;47.524;12.404;2023-05-10T04:24:28;12.90;99.90
41882;DHT22;27562;47.524;12.404;2023-05-10T04:26:54;12.90;99.90
41882;DHT22;27562;47.524;12.404;2023-05-10T04:29:20;12.90;99.90
41882;DHT22;27562;47.524;12.404;2023-05-10T04:31:46;12.90;99.90
41882;DHT22;27562;47.524;12.404;2023-05-10T04:34:12;12.90;99.90
41882;DHT22;27562;47.524;12.404;2023-05-10T04:36:38;12.90;99.90
41882;DHT22;27562;47.524;12.404;2023-05-10T04:39:03;12.80;99.90
41882;DHT22;27562;47.524;12.404;2023-05-10T04:41:29;12.80;99.90
41882;DHT22;27562;47.524;12.404;2023-05-10T04:43:55;12.80;99.90
41882;DHT22;27562;47.524;12.404;2023-05-10T04:46:21;12.80;99.90
41882;DHT22;27562;47.524;12.404;2023-05-10T04:48:47;12.80;99.90
41882;DHT22;27562;47.524;12.404;2023-05-10T04:51:12;12.80;99.90
41882;DHT22;27562;47.524;12.404;2023-05-10T04:53:38;12.70;99.90
41882;DHT22;27562;47.524;12.404;2023-05-10T04:56:04;12.60;99.90
41882;DHT22;27562;47.524;12.404;2023-05-10T04:58:30;12.60;99.90
41882;DHT22;27562;47.524;12.404;2023-05-10T05:00:55;12.50;99.90
41882;DHT22;27562;47.524;12.404;2023-05-10T05:03:21;12.40;99.90
41882;DHT22;27562;47.524;12.404;2023-05-10T05:05:47;12.30;99.90
41882;DHT22;27562;47.524;12.404;2023-05-10T05:08:13;12.30;99.90
41882;DHT22;27562;47.524;12.404;2023-05-10T05:10:39;12.30;99.90
41882;DHT22;27562;47.524;12.404;2023-05-10T05:13:04;12.30;99.90
41882;DHT22;27562;47.524;12.404;2023-05-10T05:15:30;12.20;99.90
41882;DHT22;27562;47.524;12.404;2023-05-10T05:17:56;12.20;99.90
41882;DHT22;27562;47.524;12.404;2023-05-10T05:20:22;12.20;99.90
41882;DHT22;27562;47.524;12.404;2023-05-10T05:22:48;12.20;99.90
41882;DHT22;27562;47.524;12.404;2023-05-10T05:25:13;12.30;99.90
41882;DHT22;27562;47.524;12.404;2023-05-10T05:27:40;12.40;99.90
41882;DHT22;27562;47.524;12.404;2023-05-10T05:30:06;12.50;99.90
41882;DHT22;27562;47.524;12.404;2023-05-10T05:32:33;12.50;99.90
41882;DHT22;27562;47.524;12.404;2023-05-10T05:34:58;12.60;99.90
41882;DHT22;27562;47.524;12.404;2023-05-10T05:37:24;12.70;99.90
41882;DHT22;27562;47.524;12.404;2023-05-10T05:39:50;12.70;99.90
41882;DHT22;27562;47.524;12.404;2023-05-10T05:42:16;12.80;99.90
41882;DHT22;27562;47.524;12.404;2023-05-10T05:44:43;12.80;99.90
41882;DHT22;27562;47.524;12.404;2023-05-10T05:47:09;12.80;99.90
41882;DHT22;27562;47.524;12.404;2023-05-10T05:49:36;12.80;99.90
41882;DHT22;27562;47.524;12.404;2023-05-10T05:52:03;12.80;99.90
41882;DHT22;27562;47.524;12.404;2023-05-10T05:54:29;12.90;99.90
41882;DHT22;27562;47.524;12.404;2023-05-10T05:56:55;12.90;99.90
41882;DHT22;27562;47.524;12.404;2023-05-10T05:59:22;13.00;99.90
41882;DHT22;27562;47.524;12.404;2023-05-10T06:01:47;13.00;99.90
41882;DHT22;27562;47.524;12.404;2023-05-10T06:04:13;12.90;99.90
41882;DHT22;27562;47.524;12.404;2023-05-10T06:06:39;12.90;99.90
41882;DHT22;27562;47.524;12.404;2023-05-10T06:09:04;12.80;99.90
41882;DHT22;27562;47.524;12.404;2023-05-10T06:11:30;12.80;99.90
41882;DHT22;27562;47.524;12.404;2023-05-10T06:13:58;12.80;99.90
41882;DHT22;27562;47.524;12.404;2023-05-10T06:16:23;12.80;99.90
41882;DHT22;27562;47.524;12.404;2023-05-10T06:18:49;12.80;99.90
41882;DHT22;27562;47.524;12.404;2023-05-10T06:21:15;12.90;99.90
41882;DHT22;27562;47.524;12.404;2023-05-10T06:23:41;12.90;99.90
41882;DHT22;27562;47.524;12.404;2023-05-10T06:26:07;12.90;99.90
41882;DHT22;27562;47.524;12.404;2023-05-10T06:28:33;13.00;99.90
41882;DHT22;27562;47.524;12.404;2023-05-10T06:30:59;13.10;99.90
41882;DHT22;27562;47.524;12.404;2023-05-10T06:33:25;13.10;99.90
41882;DHT22;27562;47.524;12.404;2023-05-10T06:35:51;13.20;99.90
41882;DHT22;27562;47.524;12.404;2023-05-10T06:38:17;13.20;99.90
41882;DHT22;27562;47.524;12.404;2023-05-10T06:40:42;13.30;99.90
41882;DHT22;27562;47.524;12.404;2023-05-10T06:43:08;13.30;99.90
41882;DHT22;27562;47.524;12.404;2023-05-10T06:45:34;13.30;99.90
41882;DHT22;27562;47.524;12.404;2023-05-10T06:48:00;13.30;99.90
41882;DHT22;27562;47.524;12.404;2023-05-10T06:50:26;13.30;99.90
41882;DHT22;27562;47.524;12.404;2023-05-10T06:52:52;13.30;99.90
41882;DHT22;27562;47.524;12.404;2023-05-10T06:55:17;13.30;99.90
41882;DHT22;27562;47.524;12.404;2023-05-10T06:57:43;13.30;99.90
41882;DHT22;27562;47.524;12.404;2023-05-10T07:00:09;13.30;99.90
41882;DHT22;27562;47.524;12.404;2023-05-10T07:02:35;13.20;99.90
41882;DHT22;27562;47.524;12.404;2023-05-10T07:05:01;13.30;99.90
41882;DHT22;27562;47.524;12.404;2023-05-10T07:07:27;13.30;99.90
41882;DHT22;27562;47.524;12.404;2023-05-10T07:09:54;13.30;99.90
41882;DHT22;27562;47.524;12.404;2023-05-10T07:12:20;13.30;99.90
41882;DHT22;27562;47.524;12.404;2023-05-10T07:14:45;13.30;99.90
41882;DHT22;27562;47.524;12.404;2023-05-10T07:17:12;13.30;99.90
41882;DHT22;27562;47.524;12.404;2023-05-10T07:19:37;13.30;99.90
41882;DHT22;27562;47.524;12.404;2023-05-10T07:22:03;13.40;99.90
41882;DHT22;27562;47.524;12.404;2023-05-10T07:24:29;13.30;99.90
41882;DHT22;27562;47.524;12.404;2023-05-10T07:26:56;13.20;99.90
41882;DHT22;27562;47.524;12.404;2023-05-10T07:29:22;13.20;99.90
41882;DHT22;27562;47.524;12.404;2023-05-10T07:31:47;13.20;99.90
41882;DHT22;27562;47.524;12.404;2023-05-10T07:34:13;13.10;99.90
41882;DHT22;27562;47.524;12.404;2023-05-10T07:36:39;13.00;99.90
41882;DHT22;27562;47.524;12.404;2023-05-10T07:39:04;13.00;99.90
41882;DHT22;27562;47.524;12.404;2023-05-10T07:41:30;12.90;99.90
41882;DHT22;27562;47.524;12.404;2023-05-10T07:43:56;12.90;99.90
41882;DHT22;27562;47.524;12.404;2023-05-10T07:46:21;12.80;99.90
41882;DHT22;27562;47.524;12.404;2023-05-10T07:48:47;12.80;99.90
41882;DHT22;27562;47.524;12.404;2023-05-10T07:51:13;12.70;99.90
41882;DHT22;27562;47.524;12.404;2023-05-10T07:53:39;12.70;99.90
41882;DHT22;27562;47.524;12.404;2023-05-10T07:58:47;12.80;99.90
41882;DHT22;27562;47.524;12.404;2023-05-10T08:01:13;12.70;99.90
41882;DHT22;27562;47.524;12.404;2023-05-10T08:03:38;12.80;99.90
41882;DHT22;27562;47.524;12.404;2023-05-10T08:06:04;12.80;99.90
41882;DHT22;27562;47.524;12.404;2023-05-10T08:08:31;12.80;99.90
41882;DHT22;27562;47.524;12.404;2023-05-10T08:10:56;12.80;99.90
41882;DHT22;27562;47.524;12.404;2023-05-10T08:13:22;12.80;99.90
41882;DHT22;27562;47.524;12.404;2023-05-10T08:15:48;12.80;99.90
41882;DHT22;27562;47.524;12.404;2023-05-10T08:18:13;12.80;99.90
41882;DHT22;27562;47.524;12.404;2023-05-10T08:20:39;12.80;99.90
41882;DHT22;27562;47.524;12.404;2023-05-10T08:23:05;12.80;99.90
41882;DHT22;27562;47.524;12.404;2023-05-10T08:25:31;12.80;99.90
41882;DHT22;27562;47.524;12.404;2023-05-10T08:27:57;12.90;99.90
41882;DHT22;27562;47.524;12.404;2023-05-10T08:30:22;12.90;99.90
41882;DHT22;27562;47.524;12.404;2023-05-10T08:32:48;12.90;99.90
41882;DHT22;27562;47.524;12.404;2023-05-10T08:35:14;13.00;99.90
41882;DHT22;27562;47.524;12.404;2023-05-10T08:37:39;13.00;99.90
41882;DHT22;27562;47.524;12.404;2023-05-10T08:40:05;13.00;99.90
41882;DHT22;27562;47.524;12.404;2023-05-10T08:42:34;13.00;99.90
41882;DHT22;27562;47.524;12.404;2023-05-10T08:45:02;13.00;99.90
41882;DHT22;27562;47.524;12.404;2023-05-10T08:47:29;13.00;99.90
41882;DHT22;27562;47.524;12.404;2023-05-10T08:49:55;13.00;99.90
41882;DHT22;27562;47.524;12.404;2023-05-10T08:52:24;13.10;99.90
41882;DHT22;27562;47.524;12.404;2023-05-10T08:54:51;13.10;99.90
41882;DHT22;27562;47.524;12.404;2023-05-10T08:57:18;13.20;99.90
41882;DHT22;27562;47.524;12.404;2023-05-10T08:59:44;13.20;99.90
41882;DHT22;27562;47.524;12.404;2023-05-10T09:02:11;13.20;99.90
41882;DHT22;27562;47.524;12.404;2023-05-10T09:04:38;13.20;99.90
41882;DHT22;27562;47.524;12.404;2023-05-10T09:07:04;13.20;99.90
41882;DHT22;27562;47.524;12.404;2023-05-10T09:09:30;13.30;99.90
41882;DHT22;27562;47.524;12.404;2023-05-10T09:11:56;13.30;99.90
41882;DHT22;27562;47.524;12.404;2023-05-10T09:14:23;13.30;99.90
41882;DHT22;27562;47.524;12.404;2023-05-10T09:16:50;13.30;99.90
41882;DHT22;27562;47.524;12.404;2023-05-10T09:19:15;13.30;99.90
41882;DHT22;27562;47.524;12.404;2023-05-10T09:21:41;13.30;99.90
41882;DHT22;27562;47.524;12.404;2023-05-10T09:24:07;13.30;99.90
41882;DHT22;27562;47.524;12.404;2023-05-10T09:26:34;13.40;99.90
41882;DHT22;27562;47.524;12.404;2023-05-10T09:29:01;13.40;99.90
41882;DHT22;27562;47.524;12.404;2023-05-10T09:31:44;13.50;99.90
41882;DHT22;27562;47.524;12.404;2023-05-10T09:34:15;13.40;99.90
41882;DHT22;27562;47.524;12.404;2023-05-10T09:36:55;13.40;99.90
41882;DHT22;27562;47.524;12.404;2023-05-10T09:39:30;13.40;99.90
41882;DHT22;27562;47.524;12.404;2023-05-10T09:41:57;13.40;99.90
41882;DHT22;27562;47.524;12.404;2023-05-10T09:44:23;13.40;99.90
41882;DHT22;27562;47.524;12.404;2023-05-10T09:46:49;13.30;99.90
41882;DHT22;27562;47.524;12.404;2023-05-10T09:49:16;13.30;99.90
41882;DHT22;27562;47.524;12.404;2023-05-10T09:51:41;13.40;99.90
41882;DHT22;27562;47.524;12.404;2023-05-10T09:54:15;13.40;99.90
41882;DHT22;27562;47.524;12.404;2023-05-10T09:56:41;13.50;99.90
41882;DHT22;27562;47.524;12.404;2023-05-10T09:59:11;13.50;99.90
41882;DHT22;27562;47.524;12.404;2023-05-10T10:01:38;13.60;99.90
41882;DHT22;27562;47.524;12.404;2023-05-10T10:04:05;13.60;99.90
41882;DHT22;27562;47.524;12.404;2023-05-10T10:06:39;13.70;99.90
41882;DHT22;27562;47.524;12.404;2023-05-10T10:09:08;13.70;99.90
41882;DHT22;27562;47.524;12.404;2023-05-10T10:11:35;13.80;99.90
41882;DHT22;27562;47.524;12.404;2023-05-10T10:14:01;13.80;99.90
41882;DHT22;27562;47.524;12.404;2023-05-10T10:16:29;13.90;99.90
41882;DHT22;27562;47.524;12.404;2023-05-10T10:18:55;13.90;99.90
41882;DHT22;27562;47.524;12.404;2023-05-10T10:21:22;14.00;99.90
41882;DHT22;27562;47.524;12.404;2023-05-10T10:23:48;14.10;99.90
41882;DHT22;27562;47.524;12.404;2023-05-10T10:26:14;14.10;99.90
41882;DHT22;27562;47.524;12.404;2023-05-10T10:28:51;14.20;99.90
41882;DHT22;27562;47.524;12.404;2023-05-10T10:31:36;14.20;99.90
41882;DHT22;27562;47.524;12.404;2023-05-10T10:34:09;14.20;99.90
41882;DHT22;27562;47.524;12.404;2023-05-10T10:36:45;14.20;99.90
41882;DHT22;27562;47.524;12.404;2023-05-10T10:39:11;14.30;99.90
41882;DHT22;27562;47.524;12.404;2023-05-10T10:54:53;14.90;99.90
41882;DHT22;27562;47.524;12.404;2023-05-10T10:57:22;14.90;99.90
41882;DHT22;27562;47.524;12.404;2023-05-10T10:59:48;14.90;99.90
41882;DHT22;27562;47.524;12.404;2023-05-10T11:02:53;14.90;99.90
41882;DHT22;27562;47.524;12.404;2023-05-10T11:07:58;14.90;99.90
41882;DHT22;27562;47.524;12.404;2023-05-10T11:10:25;14.90;99.90
41882;DHT22;27562;47.524;12.404;2023-05-10T11:13:04;14.90;99.90
41882;DHT22;27562;47.524;12.404;2023-05-10T11:15:34;14.80;99.90
41882;DHT22;27562;47.524;12.404;2023-05-10T11:18:20;14.70;99.90
41882;DHT22;27562;47.524;12.404;2023-05-10T11:20:55;14.60;99.90
41882;DHT22;27562;47.524;12.404;2023-05-10T11:23:21;14.60;99.90
41882;DHT22;27562;47.524;12.404;2023-05-10T11:25:48;14.60;99.90
41882;DHT22;27562;47.524;12.404;2023-05-10T11:28:17;14.60;99.90
41882;DHT22;27562;47.524;12.404;2023-05-10T11:30:44;14.60;99.90
41882;DHT22;27562;47.524;12.404;2023-05-10T11:33:18;14.70;99.90
41882;DHT22;27562;47.524;12.404;2023-05-10T11:35:45;14.70;99.90
41882;DHT22;27562;47.524;12.404;2023-05-10T11:38:12;14.70;99.90
41882;DHT22;27562;47.524;12.404;2023-05-10T11:40:38;14.70;99.90
41882;DHT22;27562;47.524;12.404;2023-05-10T11:43:05;14.70;99.90
41882;DHT22;27562;47.524;12.404;2023-05-10T11:45:34;14.80;99.90
41882;DHT22;27562;47.524;12.404;2023-05-10T11:48:00;14.90;99.90
41882;DHT22;27562;47.524;12.404;2023-05-10T11:50:26;14.90;99.90
41882;DHT22;27562;47.524;12.404;2023-05-10T11:52:53;15.00;99.90
41882;DHT22;27562;47.524;12.404;2023-05-10T11:55:19;15.10;99.90
41882;DHT22;27562;47.524;12.404;2023-05-10T11:57:45;15.00;99.90
41882;DHT22;27562;47.524;12.404;2023-05-10T12:00:15;15.00;99.90
41882;DHT22;27562;47.524;12.404;2023-05-10T12:02:40;15.00;99.90
41882;DHT22;27562;47.524;12.404;2023-05-10T12:05:07;15.00;99.90
41882;DHT22;27562;47.524;12.404;2023-05-10T12:07:33;15.00;99.90
41882;DHT22;27562;47.524;12.404;2023-05-10T12:10:09;15.00;99.90
41882;DHT22;27562;47.524;12.404;2023-05-10T12:12:47;15.00;99.90
41882;DHT22;27562;47.524;12.404;2023-05-10T12:15:21;14.80;99.90
41882;DHT22;27562;47.524;12.404;2023-05-10T12:17:48;14.60;99.90
41882;DHT22;27562;47.524;12.404;2023-05-10T12:20:23;14.50;99.90
41882;DHT22;27562;47.524;12.404;2023-05-10T12:22:51;14.40;99.90
41882;DHT22;27562;47.524;12.404;2023-05-10T12:25:18;14.30;99.90
41882;DHT22;27562;47.524;12.404;2023-05-10T12:27:49;14.20;99.90
41882;DHT22;27562;47.524;12.404;2023-05-10T12:30:22;14.20;99.90
41882;DHT22;27562;47.524;12.404;2023-05-10T12:32:48;14.20;99.90
41882;DHT22;27562;47.524;12.404;2023-05-10T12:35:14;14.30;99.90
41882;DHT22;27562;47.524;12.404;2023-05-10T12:37:42;14.20;99.90
41882;DHT22;27562;47.524;12.404;2023-05-10T12:40:09;14.20;99.90
41882;DHT22;27562;47.524;12.404;2023-05-10T12:42:35;14.20;99.90
41882;DHT22;27562;47.524;12.404;2023-05-10T12:45:02;14.30;99.90
41882;DHT22;27562;47.524;12.404;2023-05-10T12:47:28;14.30;99.90
41882;DHT22;27562;47.524;12.404;2023-05-10T12:49:54;14.40;99.90
41882;DHT22;27562;47.524;12.404;2023-05-10T12:52:20;14.60;99.90
41882;DHT22;27562;47.524;12.404;2023-05-10T12:54:46;14.70;99.90
41882;DHT22;27562;47.524;12.404;2023-05-10T12:57:13;14.80;99.90
41882;DHT22;27562;47.524;12.404;2023-05-10T12:59:39;14.90;99.90
41882;DHT22;27562;47.524;12.404;2023-05-10T13:02:05;15.00;99.90
41882;DHT22;27562;47.524;12.404;2023-05-10T13:04:31;15.00;99.90
41882;DHT22;27562;47.524;12.404;2023-05-10T13:06:57;14.90;99.90
41882;DHT22;27562;47.524;12.404;2023-05-10T13:09:25;14.90;99.90
41882;DHT22;27562;47.524;12.404;2023-05-10T13:11:51;14.90;99.90
41882;DHT22;27562;47.524;12.404;2023-05-10T13:14:19;14.80;99.90
41882;DHT22;27562;47.524;12.404;2023-05-10T13:16:46;14.70;99.90
41882;DHT22;27562;47.524;12.404;2023-05-10T13:19:13;14.50;99.90
41882;DHT22;27562;47.524;12.404;2023-05-10T13:21:38;14.40;99.90
41882;DHT22;27562;47.524;12.404;2023-05-10T13:24:06;14.20;99.90
41882;DHT22;27562;47.524;12.404;2023-05-10T13:26:32;14.00;99.90
41882;DHT22;27562;47.524;12.404;2023-05-10T13:28:58;13.90;99.90
41882;DHT22;27562;47.524;12.404;2023-05-10T13:31:24;13.90;99.90
41882;DHT22;27562;47.524;12.404;2023-05-10T13:33:49;14.00;99.90
41882;DHT22;27562;47.524;12.404;2023-05-10T13:36:15;13.80;99.90
41882;DHT22;27562;47.524;12.404;2023-05-10T13:38:41;13.80;99.90
41882;DHT22;27562;47.524;12.404;2023-05-10T13:41:06;13.80;99.90
41882;DHT22;27562;47.524;12.404;2023-05-10T13:43:32;13.80;99.90
41882;DHT22;27562;47.524;12.404;2023-05-10T13:45:58;13.80;99.90
41882;DHT22;27562;47.524;12.404;2023-05-10T13:48:23;13.70;99.90
41882;DHT22;27562;47.524;12.404;2023-05-10T13:50:49;13.70;99.90
41882;DHT22;27562;47.524;12.404;2023-05-10T13:53:15;13.70;99.90
41882;DHT22;27562;47.524;12.404;2023-05-10T13:55:41;13.70;99.90
41882;DHT22;27562;47.524;12.404;2023-05-10T13:58:06;13.70;99.90
41882;DHT22;27562;47.524;12.404;2023-05-10T14:00:32;13.70;99.90
41882;DHT22;27562;47.524;12.404;2023-05-10T14:02:58;13.70;99.90
41882;DHT22;27562;47.524;12.404;2023-05-10T14:05:23;13.80;99.90
41882;DHT22;27562;47.524;12.404;2023-05-10T14:07:50;13.70;99.90
41882;DHT22;27562;47.524;12.404;2023-05-10T14:10:16;13.60;99.90
41882;DHT22;27562;47.524;12.404;2023-05-10T14:12:41;13.60;99.90
41882;DHT22;27562;47.524;12.404;2023-05-10T14:15:07;13.40;99.90
41882;DHT22;27562;47.524;12.404;2023-05-10T14:17:35;13.30;99.90
41882;DHT22;27562;47.524;12.404;2023-05-10T14:20:01;13.30;99.90
41882;DHT22;27562;47.524;12.404;2023-05-10T14:22:27;13.30;99.90
41882;DHT22;27562;47.524;12.404;2023-05-10T14:24:53;13.30;99.90
41882;DHT22;27562;47.524;12.404;2023-05-10T14:27:18;13.30;99.90
41882;DHT22;27562;47.524;12.404;2023-05-10T14:29:44;13.30;99.90
41882;DHT22;27562;47.524;12.404;2023-05-10T14:32:10;13.40;99.90
41882;DHT22;27562;47.524;12.404;2023-05-10T14:34:36;13.40;99.90
41882;DHT22;27562;47.524;12.404;2023-05-10T14:37:01;13.50;99.90
41882;DHT22;27562;47.524;12.404;2023-05-10T14:39:27;13.60;99.90
41882;DHT22;27562;47.524;12.404;2023-05-10T14:41:55;13.70;99.90
41882;DHT22;27562;47.524;12.404;2023-05-10T14:44:21;13.70;99.90
41882;DHT22;27562;47.524;12.404;2023-05-10T14:46:47;13.80;99.90
41882;DHT22;27562;47.524;12.404;2023-05-10T14:49:13;13.90;99.90
41882;DHT22;27562;47.524;12.404;2023-05-10T14:51:39;13.90;99.90
41882;DHT22;27562;47.524;12.404;2023-05-10T14:54:05;14.00;99.90
41882;DHT22;27562;47.524;12.404;2023-05-10T14:56:31;14.00;99.90
41882;DHT22;27562;47.524;12.404;2023-05-10T14:58:57;13.90;99.90
41882;DHT22;27562;47.524;12.404;2023-05-10T15:01:23;13.90;99.90
41882;DHT22;27562;47.524;12.404;2023-05-10T15:03:48;14.00;99.90
41882;DHT22;27562;47.524;12.404;2023-05-10T15:06:15;14.00;99.90
41882;DHT22;27562;47.524;12.404;2023-05-10T15:08:43;14.00;99.90
41882;DHT22;27562;47.524;12.404;2023-05-10T15:11:09;14.00;99.90
41882;DHT22;27562;47.524;12.404;2023-05-10T15:13:35;13.90;99.90
41882;DHT22;27562;47.524;12.404;2023-05-10T15:16:01;13.80;99.90
41882;DHT22;27562;47.524;12.404;2023-05-10T15:18:26;13.70;99.90
41882;DHT22;27562;47.524;12.404;2023-05-10T15:20:52;13.50;99.90
41882;DHT22;27562;47.524;12.404;2023-05-10T15:23:18;13.40;99.90
41882;DHT22;27562;47.524;12.404;2023-05-10T15:25:44;13.40;99.90
41882;DHT22;27562;47.524;12.404;2023-05-10T15:28:09;13.40;99.90
41882;DHT22;27562;47.524;12.404;2023-05-10T15:30:35;13.40;99.90
41882;DHT22;27562;47.524;12.404;2023-05-10T15:33:00;13.40;99.90
41882;DHT22;27562;47.524;12.404;2023-05-10T15:35:26;13.50;99.90
41882;DHT22;27562;47.524;12.404;2023-05-10T15:37:52;13.50;99.90
41882;DHT22;27562;47.524;12.404;2023-05-10T15:40:18;13.50;99.90
41882;DHT22;27562;47.524;12.404;2023-05-10T15:42:44;13.50;99.90
41882;DHT22;27562;47.524;12.404;2023-05-10T15:45:10;13.60;99.90